sensor_id;sensor_type;location;lat;lon;timestamp;pressure;altitude;pressure_sealevel;temperature;humidity
81177;BME280;70786;48.272;14.200;2023-08-06T00:00:21;97190.88;;;14.60;100.00
81177;BME280;70786;48.272;14.200;2023-08-06T00:02:48;97199.34;;;14.62;100.00
81177;BME280;70786;48.272;14.200;2023-08-06T00:05:14;97194.31;;;14.61;100.00
81177;BME280;70786;48.272;14.200;2023-08-06T00:07:47;97195.94;;;14.62;100.00
81177;BME280;70786;48.272;14.200;2023-08-06T00:10:14;97204.84;;;14.59;100.00
81177;BME280;70786;48.272;14.200;2023-08-06T00:12:39;97200.47;;;14.59;100.00
81177;BME280;70786;48.272;14.200;2023-08-06T00:15:06;97197.06;;;14.59;100.00
81177;BME280;70786;48.272;14.200;2023-08-06T00:17:33;97194.63;;;14.57;100.00
81177;BME280;70786;48.272;14.200;2023-08-06T00:20:00;97198.84;;;14.58;100.00
81177;BME280;70786;48.272;14.200;2023-08-06T00:22:34;97190.38;;;14.56;100.00
81177;BME280;70786;48.272;14.200;2023-08-06T00:25:00;97189.41;;;14.57;100.00
81177;BME280;70786;48.272;14.200;2023-08-06T00:27:26;97191.34;;;14.55;100.00
81177;BME280;70786;48.272;14.200;2023-08-06T00:29:52;97184.34;;;14.56;100.00
81177;BME280;70786;48.272;14.200;2023-08-06T00:32:18;97191.34;;;14.55;100.00
81177;BME280;70786;48.272;14.200;2023-08-06T00:34:44;97188.88;;;14.54;100.00
81177;BME280;70786;48.272;14.200;2023-08-06T00:37:10;97193.13;;;14.55;100.00
81177;BME280;70786;48.272;14.200;2023-08-06T00:39:36;97186.28;;;14.54;100.00
81177;BME280;70786;48.272;14.200;2023-08-06T00:42:03;97189.84;;;14.53;100.00
81177;BME280;70786;48.272;14.200;2023-08-06T00:44:29;97179.59;;;14.51;100.00
81177;BME280;70786;48.272;14.200;2023-08-06T00:46:55;97172.63;;;14.52;100.00
81177;BME280;70786;48.272;14.200;2023-08-06T00:49:21;97176.16;;;14.51;100.00
81177;BME280;70786;48.272;14.200;2023-08-06T00:51:47;97177.13;;;14.50;100.00
81177;BME280;70786;48.272;14.200;2023-08-06T00:54:13;97172.72;;;14.50;100.00
81177;BME280;70786;48.272;14.200;2023-08-06T00:56:41;97172.22;;;14.47;100.00
81177;BME280;70786;48.272;14.200;2023-08-06T00:59:08;97165.22;;;14.47;100.00
81177;BME280;70786;48.272;14.200;2023-08-06T01:01:35;97163.59;;;14.46;100.00
81177;BME280;70786;48.272;14.200;2023-08-06T01:04:01;97163.75;;;14.45;100.00
81177;BME280;70786;48.272;14.200;2023-08-06T01:09:15;97151.56;;;14.45;100.00
81177;BME280;70786;48.272;14.200;2023-08-06T01:11:57;97143.75;;;14.45;100.00
81177;BME280;70786;48.272;14.200;2023-08-06T01:14:54;97148.16;;;14.45;100.00
81177;BME280;70786;48.272;14.200;2023-08-06T01:17:23;97136.94;;;14.44;100.00
81177;BME280;70786;48.272;14.200;2023-08-06T01:19:52;97143.13;;;14.43;100.00
81177;BME280;70786;48.272;14.200;2023-08-06T01:22:18;97138.72;;;14.44;100.00
81177;BME280;70786;48.272;14.200;2023-08-06T01:24:48;97137.41;;;14.40;100.00
81177;BME280;70786;48.272;14.200;2023-08-06T01:27:28;97144.22;;;14.41;100.00
81177;BME280;70786;48.272;14.200;2023-08-06T01:30:02;97146.16;;;14.39;100.00
81177;BME280;70786;48.272;14.200;2023-08-06T01:32:32;97142.59;;;14.40;100.00
81177;BME280;70786;48.272;14.200;2023-08-06T01:35:00;97141.63;;;14.41;100.00
81177;BME280;70786;48.272;14.200;2023-08-06T01:37:27;97140.00;;;14.40;100.00
81177;BME280;70786;48.272;14.200;2023-08-06T01:39:53;97144.22;;;14.41;100.00
81177;BME280;70786;48.272;14.200;2023-08-06T01:42:19;97133.97;;;14.39;100.00
81177;BME280;70786;48.272;14.200;2023-08-06T01:44:45;97136.72;;;14.38;100.00
81177;BME280;70786;48.272;14.200;2023-08-06T01:47:11;97139.31;;;14.38;100.00
81177;BME280;70786;48.272;14.200;2023-08-06T01:49:37;97138.34;;;14.39;100.00
81177;BME280;70786;48.272;14.200;2023-08-06T01:52:03;97140.00;;;14.40;100.00
81177;BME280;70786;48.272;14.200;2023-08-06T01:54:29;97124.41;;;14.40;100.00
81177;BME280;70786;48.272;14.200;2023-08-06T01:56:55;97129.44;;;14.41;100.00
81177;BME280;70786;48.272;14.200;2023-08-06T01:59:24;97121.53;;;14.43;100.00
81177;BME280;70786;48.272;14.200;2023-08-06T02:01:50;97125.56;;;14.45;100.00
81177;BME280;70786;48.272;14.200;2023-08-06T02:04:22;97126.41;;;14.46;100.00
81177;BME280;70786;48.272;14.200;2023-08-06T02:06:48;97129.97;;;14.45;100.00
81177;BME280;70786;48.272;14.200;2023-08-06T02:09:14;97123.81;;;14.46;100.00
81177;BME280;70786;48.272;14.200;2023-08-06T02:11:43;97120.25;;;14.47;100.00
81177;BME280;70786;48.272;14.200;2023-08-06T02:14:09;97124.47;;;14.48;100.00
81177;BME280;70786;48.272;14.200;2023-08-06T02:16:35;97117.78;;;14.45;100.00
81177;BME280;70786;48.272;14.200;2023-08-06T02:19:01;97110.81;;;14.46;100.00
81177;BME280;70786;48.272;14.200;2023-08-06T02:21:33;97112.59;;;14.45;100.00
81177;BME280;70786;48.272;14.200;2023-08-06T02:23:59;97111.78;;;14.45;100.00
81177;BME280;70786;48.272;14.200;2023-08-06T02:26:31;97111.25;;;14.41;100.00
81177;BME280;70786;48.272;14.200;2023-08-06T02:28:57;97115.94;;;14.38;100.00
81177;BME280;70786;48.272;14.200;2023-08-06T02:31:28;97113.47;;;14.36;100.00
81177;BME280;70786;48.272;14.200;2023-08-06T02:33:54;97106.78;;;14.33;100.00
81177;BME280;70786;48.272;14.200;2023-08-06T02:36:26;97103.38;;;14.33;100.00
81177;BME280;70786;48.272;14.200;2023-08-06T02:38:55;97102.72;;;14.31;100.00
81177;BME280;70786;48.272;14.200;2023-08-06T02:41:26;97097.66;;;14.29;100.00
81177;BME280;70786;48.272;14.200;2023-08-06T02:43:55;97099.59;;;14.27;100.00
81177;BME280;70786;48.272;14.200;2023-08-06T02:46:24;97097.00;;;14.27;100.00
81177;BME280;70786;48.272;14.200;2023-08-06T02:48:53;97107.38;;;14.27;100.00
81177;BME280;70786;48.272;14.200;2023-08-06T02:51:19;97097.16;;;14.26;100.00
81177;BME280;70786;48.272;14.200;2023-08-06T02:53:47;97093.75;;;14.25;100.00
81177;BME280;70786;48.272;14.200;2023-08-06T02:56:16;97109.47;;;14.24;100.00
81177;BME280;70786;48.272;14.200;2023-08-06T02:58:42;97095.53;;;14.25;100.00
81177;BME280;70786;48.272;14.200;2023-08-06T03:01:09;97095.53;;;14.25;100.00
81177;BME280;70786;48.272;14.200;2023-08-06T03:03:40;97093.06;;;14.23;100.00
81177;BME280;70786;48.272;14.200;2023-08-06T03:06:07;97089.50;;;14.24;100.00
81177;BME280;70786;48.272;14.200;2023-08-06T03:08:33;97084.47;;;14.23;100.00
81177;BME280;70786;48.272;14.200;2023-08-06T03:11:03;97089.78;;;14.21;100.00
81177;BME280;70786;48.272;14.200;2023-08-06T03:13:29;97086.38;;;14.21;100.00
81177;BME280;70786;48.272;14.200;2023-08-06T03:15:58;97088.97;;;14.21;100.00
81177;BME280;70786;48.272;14.200;2023-08-06T03:18:28;97088.97;;;14.21;100.00
81177;BME280;70786;48.272;14.200;2023-08-06T03:20:54;97089.78;;;14.21;100.00
81177;BME280;70786;48.272;14.200;2023-08-06T03:23:23;97091.44;;;14.22;100.00
81177;BME280;70786;48.272;14.200;2023-08-06T03:25:53;97093.88;;;14.24;100.00
81177;BME280;70786;48.272;14.200;2023-08-06T03:28:19;97093.88;;;14.24;100.00
81177;BME280;70786;48.272;14.200;2023-08-06T03:30:57;97097.44;;;14.23;100.00
81177;BME280;70786;48.272;14.200;2023-08-06T03:33:30;97089.66;;;14.23;100.00
81177;BME280;70786;48.272;14.200;2023-08-06T03:36:02;97092.25;;;14.23;100.00
81177;BME280;70786;48.272;14.200;2023-08-06T03:38:28;97091.59;;;14.21;100.00
81177;BME280;70786;48.272;14.200;2023-08-06T03:40:57;97092.25;;;14.23;100.00
81177;BME280;70786;48.272;14.200;2023-08-06T03:43:24;97082.69;;;14.23;100.00
81177;BME280;70786;48.272;14.200;2023-08-06T03:45:50;97090.47;;;14.23;100.00
81177;BME280;70786;48.272;14.200;2023-08-06T03:48:17;97088.69;;;14.24;100.00
81177;BME280;70786;48.272;14.200;2023-08-06T03:50:46;97080.09;;;14.23;100.00
81177;BME280;70786;48.272;14.200;2023-08-06T03:53:15;97082.69;;;14.23;100.00
81177;BME280;70786;48.272;14.200;2023-08-06T03:55:50;97081.56;;;14.26;100.00
81177;BME280;70786;48.272;14.200;2023-08-06T03:58:16;97079.09;;;14.24;100.00
81177;BME280;70786;48.272;14.200;2023-08-06T04:00:45;97076.50;;;14.24;100.00
81177;BME280;70786;48.272;14.200;2023-08-06T04:03:16;97073.63;;;14.27;100.00
81177;BME280;70786;48.272;14.200;2023-08-06T04:05:48;97076.38;;;14.26;100.00
81177;BME280;70786;48.272;14.200;2023-08-06T04:08:17;97080.75;;;14.25;100.00
81177;BME280;70786;48.272;14.200;2023-08-06T04:10:50;97086.09;;;14.24;100.00
81177;BME280;70786;48.272;14.200;2023-08-06T04:13:19;97092.56;;;14.20;100.00
81177;BME280;70786;48.272;14.200;2023-08-06T04:15:46;97091.75;;;14.19;100.00
81177;BME280;70786;48.272;14.200;2023-08-06T04:18:14;97095.34;;;14.08;100.00
81177;BME280;70786;48.272;14.200;2023-08-06T04:20:44;97089.78;;;14.03;100.00
81177;BME280;70786;48.272;14.200;2023-08-06T04:23:11;97094.91;;;13.95;100.00
81177;BME280;70786;48.272;14.200;2023-08-06T04:25:38;97090.16;;;13.90;100.00
81177;BME280;70786;48.272;14.200;2023-08-06T04:28:04;97104.53;;;13.85;100.00
81177;BME280;70786;48.272;14.200;2023-08-06T04:30:34;97094.88;;;13.77;100.00
81177;BME280;70786;48.272;14.200;2023-08-06T04:33:00;97096.13;;;13.73;100.00
81177;BME280;70786;48.272;14.200;2023-08-06T04:35:27;97094.50;;;13.72;100.00
81177;BME280;70786;48.272;14.200;2023-08-06T04:37:54;97096.94;;;13.74;100.00
81177;BME280;70786;48.272;14.200;2023-08-06T04:40:20;97103.50;;;13.68;100.00
81177;BME280;70786;48.272;14.200;2023-08-06T04:42:47;97098.91;;;13.62;100.00
81177;BME280;70786;48.272;14.200;2023-08-06T04:45:13;97100.41;;;13.64;100.00
81177;BME280;70786;48.272;14.200;2023-08-06T04:47:40;97099.75;;;13.62;100.00
81177;BME280;70786;48.272;14.200;2023-08-06T04:50:09;97098.91;;;13.62;100.00
81177;BME280;70786;48.272;14.200;2023-08-06T04:52:45;97099.75;;;13.62;100.00
81177;BME280;70786;48.272;14.200;2023-08-06T04:55:11;97097.28;;;13.61;100.00
81177;BME280;70786;48.272;14.200;2023-08-06T04:57:40;97096.47;;;13.60;100.00
81177;BME280;70786;48.272;14.200;2023-08-06T05:00:12;97090.97;;;13.63;100.00
81177;BME280;70786;48.272;14.200;2023-08-06T05:02:42;97101.38;;;13.63;100.00
81177;BME280;70786;48.272;14.200;2023-08-06T05:05:08;97096.84;;;13.65;100.00
81177;BME280;70786;48.272;14.200;2023-08-06T05:07:38;97106.25;;;13.66;100.00
81177;BME280;70786;48.272;14.200;2023-08-06T05:10:07;97095.88;;;13.66;100.00
81177;BME280;70786;48.272;14.200;2023-08-06T05:12:33;97095.72;;;13.68;100.00
81177;BME280;70786;48.272;14.200;2023-08-06T05:15:03;97103.09;;;13.73;100.00
81177;BME280;70786;48.272;14.200;2023-08-06T05:17:32;97102.28;;;13.72;100.00
81177;BME280;70786;48.272;14.200;2023-08-06T05:20:00;97101.31;;;13.73;100.00
81177;BME280;70786;48.272;14.200;2023-08-06T05:22:29;97098.72;;;13.73;100.00
81177;BME280;70786;48.272;14.200;2023-08-06T05:24:55;97103.22;;;13.71;100.00
81177;BME280;70786;48.272;14.200;2023-08-06T05:27:22;97101.59;;;13.70;100.00
81177;BME280;70786;48.272;14.200;2023-08-06T05:29:48;97095.59;;;13.70;100.00
81177;BME280;70786;48.272;14.200;2023-08-06T05:32:15;97097.47;;;13.77;100.00
81177;BME280;70786;48.272;14.200;2023-08-06T05:34:44;97096.78;;;13.75;100.00
81177;BME280;70786;48.272;14.200;2023-08-06T05:37:11;97100.50;;;13.73;100.00
81177;BME280;70786;48.272;14.200;2023-08-06T05:39:41;97101.81;;;13.77;100.00
81177;BME280;70786;48.272;14.200;2023-08-06T05:42:12;97102.50;;;13.79;100.00
81177;BME280;70786;48.272;14.200;2023-08-06T05:44:41;97093.09;;;13.78;100.00
81177;BME280;70786;48.272;14.200;2023-08-06T05:47:15;97092.22;;;13.87;100.00
81177;BME280;70786;48.272;14.200;2023-08-06T05:49:45;97088.28;;;14.01;100.00
81177;BME280;70786;48.272;14.200;2023-08-06T05:52:11;97090.75;;;14.02;100.00
81177;BME280;70786;48.272;14.200;2023-08-06T05:54:38;97095.22;;;14.10;100.00
81177;BME280;70786;48.272;14.200;2023-08-06T05:57:06;97097.53;;;14.13;100.00
81177;BME280;70786;48.272;14.200;2023-08-06T05:59:33;97095.53;;;14.25;100.00
81177;BME280;70786;48.272;14.200;2023-08-06T06:02:00;97088.78;;;14.32;100.00
81177;BME280;70786;48.272;14.200;2023-08-06T06:04:26;97080.31;;;14.30;100.00
81177;BME280;70786;48.272;14.200;2023-08-06T06:06:53;97079.41;;;14.39;100.00
81177;BME280;70786;48.272;14.200;2023-08-06T06:09:20;97093.59;;;14.45;100.00
81177;BME280;70786;48.272;14.200;2023-08-06T06:11:46;97090.78;;;14.38;100.00
81177;BME280;70786;48.272;14.200;2023-08-06T06:14:18;97086.28;;;14.48;100.00
81177;BME280;70786;48.272;14.200;2023-08-06T06:16:47;97084.69;;;14.47;100.00
81177;BME280;70786;48.272;14.200;2023-08-06T06:19:14;97095.31;;;14.54;100.00
81177;BME280;70786;48.272;14.200;2023-08-06T06:21:43;97092.06;;;14.52;100.00
81177;BME280;70786;48.272;14.200;2023-08-06T06:24:10;97098.28;;;14.59;100.00
81177;BME280;70786;48.272;14.200;2023-08-06T06:26:36;97092.47;;;14.65;100.00
81177;BME280;70786;48.272;14.200;2023-08-06T06:29:03;97086.91;;;14.60;100.00
81177;BME280;70786;48.272;14.200;2023-08-06T06:31:30;97105.56;;;14.73;100.00
81177;BME280;70786;48.272;14.200;2023-08-06T06:33:57;97096.88;;;14.65;100.00
81177;BME280;70786;48.272;14.200;2023-08-06T06:36:23;97098.25;;;14.77;100.00
81177;BME280;70786;48.272;14.200;2023-08-06T06:38:53;97091.94;;;14.79;100.00
81177;BME280;70786;48.272;14.200;2023-08-06T06:41:19;97084.16;;;14.79;100.00
81177;BME280;70786;48.272;14.200;2023-08-06T06:43:48;97078.22;;;14.95;100.00
81177;BME280;70786;48.272;14.200;2023-08-06T06:46:14;97080.28;;;15.10;100.00
81177;BME280;70786;48.272;14.200;2023-08-06T06:48:41;97079.16;;;15.12;100.00
81177;BME280;70786;48.272;14.200;2023-08-06T06:51:08;97080.81;;;15.21;100.00
81177;BME280;70786;48.272;14.200;2023-08-06T06:53:35;97075.47;;;15.23;100.00
81177;BME280;70786;48.272;14.200;2023-08-06T06:56:03;97079.59;;;15.34;100.00
81177;BME280;70786;48.272;14.200;2023-08-06T06:58:31;97089.84;;;15.35;100.00
81177;BME280;70786;48.272;14.200;2023-08-06T07:00:58;97089.31;;;15.32;100.00
81177;BME280;70786;48.272;14.200;2023-08-06T07:03:28;97096.00;;;15.34;100.00
81177;BME280;70786;48.272;14.200;2023-08-06T07:05:58;97098.06;;;15.22;99.83
81177;BME280;70786;48.272;14.200;2023-08-06T07:08:25;97096.63;;;15.28;99.56
81177;BME280;70786;48.272;14.200;2023-08-06T07:11:02;97099.41;;;15.35;100.00
81177;BME280;70786;48.272;14.200;2023-08-06T07:13:30;97095.25;;;15.42;99.63
81177;BME280;70786;48.272;14.200;2023-08-06T07:15:56;97099.13;;;15.38;99.59
81177;BME280;70786;48.272;14.200;2023-08-06T07:18:22;97099.72;;;15.32;100.00
81177;BME280;70786;48.272;14.200;2023-08-06T07:20:49;97100.31;;;15.17;100.00
81177;BME280;70786;48.272;14.200;2023-08-06T07:23:15;97102.13;;;14.99;100.00
81177;BME280;70786;48.272;14.200;2023-08-06T07:25:42;97095.31;;;14.98;100.00
81177;BME280;70786;48.272;14.200;2023-08-06T07:28:09;97100.16;;;14.93;99.80
81177;BME280;70786;48.272;14.200;2023-08-06T07:30:38;97103.31;;;14.78;100.00
81177;BME280;70786;48.272;14.200;2023-08-06T07:33:04;97107.06;;;14.58;100.00
81177;BME280;70786;48.272;14.200;2023-08-06T07:35:31;97098.94;;;14.43;100.00
81177;BME280;70786;48.272;14.200;2023-08-06T07:37:57;97100.66;;;14.34;100.00
81177;BME280;70786;48.272;14.200;2023-08-06T07:40:23;97098.34;;;14.31;100.00
81177;BME280;70786;48.272;14.200;2023-08-06T07:42:48;97104.06;;;14.35;100.00
81177;BME280;70786;48.272;14.200;2023-08-06T07:45:14;97091.97;;;14.44;100.00
81177;BME280;70786;48.272;14.200;2023-08-06T07:47:40;97102.13;;;14.37;100.00
81177;BME280;70786;48.272;14.200;2023-08-06T07:50:07;97101.16;;;14.38;100.00
81177;BME280;70786;48.272;14.200;2023-08-06T07:52:33;97100.13;;;14.49;100.00
81177;BME280;70786;48.272;14.200;2023-08-06T07:54:59;97100.22;;;14.57;100.00
81177;BME280;70786;48.272;14.200;2023-08-06T07:57:27;97100.75;;;14.61;100.00
81177;BME280;70786;48.272;14.200;2023-08-06T07:59:53;97104.50;;;14.66;100.00
81177;BME280;70786;48.272;14.200;2023-08-06T08:02:19;97111.34;;;14.67;100.00
81177;BME280;70786;48.272;14.200;2023-08-06T08:04:45;97110.44;;;14.76;100.00
81177;BME280;70786;48.272;14.200;2023-08-06T08:07:13;97105.56;;;14.73;100.00
81177;BME280;70786;48.272;14.200;2023-08-06T08:09:39;97103.09;;;14.72;100.00
81177;BME280;70786;48.272;14.200;2023-08-06T08:12:05;97097.06;;;14.71;100.00
81177;BME280;70786;48.272;14.200;2023-08-06T08:14:31;97099.16;;;14.68;100.00
81177;BME280;70786;48.272;14.200;2023-08-06T08:17:04;97093.81;;;14.69;100.00
81177;BME280;70786;48.272;14.200;2023-08-06T08:19:34;97083.97;;;14.55;100.00
81177;BME280;70786;48.272;14.200;2023-08-06T08:22:00;97099.91;;;14.60;100.00
81177;BME280;70786;48.272;14.200;2023-08-06T08:24:26;97092.28;;;14.58;100.00
81177;BME280;70786;48.272;14.200;2023-08-06T08:26:53;97086.47;;;14.65;100.00
81177;BME280;70786;48.272;14.200;2023-08-06T08:29:19;97080.59;;;14.63;100.00
81177;BME280;70786;48.272;14.200;2023-08-06T08:31:45;97083.13;;;14.54;100.00
81177;BME280;70786;48.272;14.200;2023-08-06T08:34:11;97079.66;;;14.64;100.00
81177;BME280;70786;48.272;14.200;2023-08-06T08:36:38;97083.72;;;14.66;100.00
81177;BME280;70786;48.272;14.200;2023-08-06T08:39:04;97076.06;;;14.65;100.00
81177;BME280;70786;48.272;14.200;2023-08-06T08:41:31;97077.78;;;14.56;100.00
81177;BME280;70786;48.272;14.200;2023-08-06T08:43:58;97080.91;;;14.59;100.00
81177;BME280;70786;48.272;14.200;2023-08-06T08:46:26;97081.41;;;14.45;100.00
81177;BME280;70786;48.272;14.200;2023-08-06T08:48:53;97076.56;;;14.50;100.00
81177;BME280;70786;48.272;14.200;2023-08-06T08:51:20;97072.91;;;14.53;100.00
81177;BME280;70786;48.272;14.200;2023-08-06T08:53:47;97071.19;;;14.62;100.00
81177;BME280;70786;48.272;14.200;2023-08-06T08:56:15;97067.25;;;14.84;100.00
81177;BME280;70786;48.272;14.200;2023-08-06T08:58:42;97064.06;;;14.90;100.00
81177;BME280;70786;48.272;14.200;2023-08-06T09:01:08;97068.06;;;14.84;100.00
81177;BME280;70786;48.272;14.200;2023-08-06T09:03:36;97056.50;;;15.04;100.00
81177;BME280;70786;48.272;14.200;2023-08-06T09:06:03;97063.22;;;15.15;100.00
81177;BME280;70786;48.272;14.200;2023-08-06T09:08:34;97053.25;;;15.37;99.76
81177;BME280;70786;48.272;14.200;2023-08-06T09:11:02;97048.94;;;15.54;99.54
81177;BME280;70786;48.272;14.200;2023-08-06T09:13:30;97055.41;;;15.84;99.11
81177;BME280;70786;48.272;14.200;2023-08-06T09:15:56;97054.88;;;15.72;97.57
81177;BME280;70786;48.272;14.200;2023-08-06T09:18:31;97041.53;;;15.75;98.09
81177;BME280;70786;48.272;14.200;2023-08-06T09:20:58;97038.19;;;16.07;97.50
81177;BME280;70786;48.272;14.200;2023-08-06T09:23:28;97038.50;;;16.04;97.06
81177;BME280;70786;48.272;14.200;2023-08-06T09:25:59;97039.31;;;15.88;96.32
81177;BME280;70786;48.272;14.200;2023-08-06T09:28:37;97038.03;;;16.17;96.12
81177;BME280;70786;48.272;14.200;2023-08-06T09:31:08;97036.88;;;16.44;97.06
81177;BME280;70786;48.272;14.200;2023-08-06T09:33:36;97038.34;;;16.38;95.93
81177;BME280;70786;48.272;14.200;2023-08-06T09:36:11;97032.34;;;16.79;96.62
81177;BME280;70786;48.272;14.200;2023-08-06T09:38:38;97031.97;;;16.66;94.22
81177;BME280;70786;48.272;14.200;2023-08-06T09:41:06;97021.25;;;16.77;93.51
81177;BME280;70786;48.272;14.200;2023-08-06T09:43:42;97017.97;;;16.83;93.87
81177;BME280;70786;48.272;14.200;2023-08-06T09:46:13;97017.66;;;16.70;93.39
81177;BME280;70786;48.272;14.200;2023-08-06T09:48:40;97013.91;;;16.48;94.06
81177;BME280;70786;48.272;14.200;2023-08-06T09:51:08;97010.81;;;16.85;92.44
81177;BME280;70786;48.272;14.200;2023-08-06T09:53:34;97012.72;;;17.07;91.63
81177;BME280;70786;48.272;14.200;2023-08-06T09:56:01;97012.00;;;17.22;87.65
81177;BME280;70786;48.272;14.200;2023-08-06T09:58:29;97008.06;;;17.26;87.22
81177;BME280;70786;48.272;14.200;2023-08-06T10:00:57;97016.03;;;17.64;86.97
81177;BME280;70786;48.272;14.200;2023-08-06T10:03:23;97011.94;;;17.69;87.33
81177;BME280;70786;48.272;14.200;2023-08-06T10:05:50;97009.19;;;17.63;86.18
81177;BME280;70786;48.272;14.200;2023-08-06T10:08:16;97001.31;;;18.02;84.71
81177;BME280;70786;48.272;14.200;2023-08-06T10:10:43;97001.25;;;18.10;84.73
81177;BME280;70786;48.272;14.200;2023-08-06T10:13:10;96998.69;;;18.25;83.98
81177;BME280;70786;48.272;14.200;2023-08-06T10:15:38;97007.72;;;18.37;84.78
81177;BME280;70786;48.272;14.200;2023-08-06T10:18:06;97008.16;;;18.64;83.67
81177;BME280;70786;48.272;14.200;2023-08-06T10:20:36;97007.47;;;18.85;81.49
81177;BME280;70786;48.272;14.200;2023-08-06T10:23:03;97005.31;;;18.36;83.26
81177;BME280;70786;48.272;14.200;2023-08-06T10:25:31;97008.06;;;18.57;84.28
81177;BME280;70786;48.272;14.200;2023-08-06T10:27:58;97006.00;;;18.30;84.45
81177;BME280;70786;48.272;14.200;2023-08-06T10:30:32;97018.03;;;18.16;83.69
81177;BME280;70786;48.272;14.200;2023-08-06T10:32:59;97005.06;;;18.22;83.51
81177;BME280;70786;48.272;14.200;2023-08-06T10:35:34;97000.16;;;18.05;81.56
81177;BME280;70786;48.272;14.200;2023-08-06T10:40:32;96986.56;;;17.86;79.62
81177;BME280;70786;48.272;14.200;2023-08-06T10:42:59;96986.50;;;17.94;80.28
81177;BME280;70786;48.272;14.200;2023-08-06T10:45:25;96989.66;;;17.59;79.50
81177;BME280;70786;48.272;14.200;2023-08-06T10:47:55;96991.56;;;16.70;85.36
81177;BME280;70786;48.272;14.200;2023-08-06T10:50:22;96991.09;;;16.58;87.48
81177;BME280;70786;48.272;14.200;2023-08-06T10:52:49;97000.09;;;16.39;88.58
81177;BME280;70786;48.272;14.200;2023-08-06T10:55:28;97004.63;;;16.61;89.17
81177;BME280;70786;48.272;14.200;2023-08-06T10:57:55;96991.34;;;17.74;86.90
81177;BME280;70786;48.272;14.200;2023-08-06T11:00:22;96995.31;;;17.93;86.50
81177;BME280;70786;48.272;14.200;2023-08-06T11:02:52;96993.53;;;17.94;83.45
81177;BME280;70786;48.272;14.200;2023-08-06T11:05:19;96991.09;;;18.15;82.76
81177;BME280;70786;48.272;14.200;2023-08-06T11:07:45;96983.25;;;17.92;83.64
81177;BME280;70786;48.272;14.200;2023-08-06T11:10:12;96984.28;;;18.44;82.07
81177;BME280;70786;48.272;14.200;2023-08-06T11:12:39;96987.81;;;18.74;80.19
81177;BME280;70786;48.272;14.200;2023-08-06T11:15:06;96980.25;;;19.45;80.73
81177;BME280;70786;48.272;14.200;2023-08-06T11:17:33;96975.25;;;20.01;75.67
81177;BME280;70786;48.272;14.200;2023-08-06T11:20:03;96965.84;;;20.35;74.74
81177;BME280;70786;48.272;14.200;2023-08-06T11:22:30;96968.16;;;21.08;71.22
81177;BME280;70786;48.272;14.200;2023-08-06T11:24:56;96976.56;;;20.12;69.54
81177;BME280;70786;48.272;14.200;2023-08-06T11:27:22;96978.31;;;19.32;71.36
81177;BME280;70786;48.272;14.200;2023-08-06T11:29:48;96968.84;;;18.72;69.77
81177;BME280;70786;48.272;14.200;2023-08-06T11:32:14;96973.84;;;18.44;70.81
81177;BME280;70786;48.272;14.200;2023-08-06T11:34:40;96972.25;;;18.58;69.71
81177;BME280;70786;48.272;14.200;2023-08-06T11:37:07;96972.44;;;18.56;69.87
81177;BME280;70786;48.272;14.200;2023-08-06T11:39:34;96974.81;;;19.10;70.62
81177;BME280;70786;48.272;14.200;2023-08-06T11:42:03;96977.59;;;19.60;66.37
81177;BME280;70786;48.272;14.200;2023-08-06T11:44:31;96973.13;;;19.39;68.34
81177;BME280;70786;48.272;14.200;2023-08-06T11:46:59;96977.50;;;19.32;68.32
81177;BME280;70786;48.272;14.200;2023-08-06T11:55:01;96976.22;;;18.16;70.50
81177;BME280;70786;48.272;14.200;2023-08-06T11:57:34;96985.00;;;16.98;79.07
81177;BME280;70786;48.272;14.200;2023-08-06T12:00:04;96992.31;;;17.42;77.43
81177;BME280;70786;48.272;14.200;2023-08-06T12:02:33;96992.28;;;17.82;79.16
81177;BME280;70786;48.272;14.200;2023-08-06T12:05:14;96989.09;;;18.78;77.25
81177;BME280;70786;48.272;14.200;2023-08-06T12:07:43;96996.03;;;19.16;72.67
81177;BME280;70786;48.272;14.200;2023-08-06T12:10:10;96993.50;;;18.93;73.68
81177;BME280;70786;48.272;14.200;2023-08-06T12:12:36;96986.00;;;18.75;74.73
81177;BME280;70786;48.272;14.200;2023-08-06T12:15:03;96984.97;;;18.23;72.96
81177;BME280;70786;48.272;14.200;2023-08-06T12:17:29;96987.41;;;17.79;75.49
81177;BME280;70786;48.272;14.200;2023-08-06T12:19:55;96989.00;;;17.57;75.45
81177;BME280;70786;48.272;14.200;2023-08-06T12:22:21;97008.31;;;17.47;76.91
81177;BME280;70786;48.272;14.200;2023-08-06T12:24:47;97021.50;;;16.98;81.45
81177;BME280;70786;48.272;14.200;2023-08-06T12:27:14;97052.44;;;15.70;93.25
81177;BME280;70786;48.272;14.200;2023-08-06T12:29:43;97060.69;;;14.97;96.73
81177;BME280;70786;48.272;14.200;2023-08-06T12:32:10;97062.28;;;14.90;97.42
81177;BME280;70786;48.272;14.200;2023-08-06T12:34:40;97054.78;;;14.61;97.88
81177;BME280;70786;48.272;14.200;2023-08-06T12:37:07;97063.53;;;14.60;98.53
81177;BME280;70786;48.272;14.200;2023-08-06T12:39:37;97053.50;;;14.65;98.66
81177;BME280;70786;48.272;14.200;2023-08-06T12:42:04;97053.56;;;14.73;98.82
81177;BME280;70786;48.272;14.200;2023-08-06T12:44:31;97047.25;;;14.76;98.54
81177;BME280;70786;48.272;14.200;2023-08-06T12:46:57;97073.13;;;14.86;97.51
81177;BME280;70786;48.272;14.200;2023-08-06T12:49:25;97089.78;;;14.75;98.82
81177;BME280;70786;48.272;14.200;2023-08-06T12:51:52;97076.69;;;14.58;98.16
81177;BME280;70786;48.272;14.200;2023-08-06T12:54:19;97085.50;;;14.48;96.71
81177;BME280;70786;48.272;14.200;2023-08-06T12:56:47;97079.34;;;14.31;97.32